Aviation Digital Data Service (ADDS)

Output produced by METARs form (1919 UTC 21 November 2017)
found at http://aviationweather.gov/adds/metars/
 
KOEO 211855Z AUTO 30012G21KT 10SM SCT031 SCT038 M02/M11 A3012 RMK AO2 T10241107